Hong Xiang 2 — BYBA — position and weather

sailwx.info

Track history (hours):
 
Tides and Currents Weather Stations Pressure Air Temp Water Temp Dewpoint Dewpoint Depression Visibility Wind Speed Wind Dir Waves Ship Positions

Hong Xiang 2

Last reported at 2015-Jul-01 03:31 UTC. Time now 2015-Jul-07 08:57 UTC.
Position N 23°26' E 116°29'.

Length 96 m; draft 5 m.

Type: Ship (hazmat cat A). MMSI: 413413000.

Date/timePositionNaut miles runAvg speedWind from/ knotsBaromVisibWave heightAir tempDewpointWater temp
2015-Jul-01 03:31N 23°26' E 116°29'8 8.8
2015-Jul-01 02:33N 23°21' E 116°36'9 9.0
2015-Jul-01 01:34N 23°19' E 116°45'9 8.9
2015-Jul-01 00:33N 23°11' E 116°48'11 0.3
2015-Jun-29 04:31N 23°03' E 116°39'1110.8
2015-Jun-29 03:30N 23°10' E 116°47'8 8.5
2015-Jun-29 02:34N 23°18' E 116°47'10 9.5
2015-Jun-29 01:34N 23°21' E 116°36'9 9.0
2015-Jun-29 00:33N 23°26' E 116°29'1 0.0
2015-Jun-27 08:18N 23°27' E 116°28'5 6.8
2015-Jun-27 07:33N 23°25' E 116°33'7 6.7
2015-Jun-27 06:33N 23°20' E 116°38'7 6.6
2015-Jun-27 05:33N 23°20' E 116°45'7 7.3
2015-Jun-27 04:33N 23°18' E 116°53'4110.2
2015-Jun-27 00:33N 23°37' E 117°32'10 9.7
2015-Jun-26 23:33N 23°43' E 117°41'10 9.8
2015-Jun-26 22:33N 23°48' E 117°49'11 9.8
2015-Jun-26 21:25N 23°56' E 117°59'9 9.4
2015-Jun-26 20:28N 24°01' E 118°07'9 9.2
2015-Jun-26 19:31N 24°06' E 118°14'49 9.1
2015-Jun-26 14:08N 24°39' E 118°54'7 9.0
2015-Jun-26 13:25N 24°43' E 118°60'341 8.8
2015-Jun-24 22:28N 29°33' E 122°22'9 9.6
2015-Jun-24 21:33N 29°41' E 122°25'20 9.6
2015-Jun-24 19:26N 29°60' E 122°34'15 7.9
2015-Jun-24 17:30N 30°07' E 122°18'3 0.1
2015-Jun-23 22:33N 30°08' E 122°15'0 0.1
2015-Jun-23 19:32N 30°08' E 122°15'0 0.0
2015-Jun-23 19:02N 30°08' E 122°15'355 7.8
2015-Jun-21 21:29N 24°52' E 119°12'1010.3
2015-Jun-21 20:33N 24°46' E 119°04'3310.4
2015-Jun-21 17:22N 24°25' E 118°37'2111.2
2015-Jun-21 15:29N 24°11' E 118°20'9410.2
2015-Jun-21 06:12N 23°18' E 116°54'4 6.2
2015-Jun-21 05:33N 23°16' E 116°50'0 0.1
2015-Jun-21 04:31N 23°16' E 116°50'  
Track history (hours):
 
Tides and Currents Weather Stations Pressure Air Temp Water Temp Dewpoint Dewpoint Depression Visibility Wind Speed Wind Dir Waves Ship Positions

Hong Xiang 2

Last reported at 2015-Jul-01 03:31 UTC. Time now 2015-Jul-07 08:57 UTC.
Position N 23°26' E 116°29'.

Length 96 m; draft 5 m.

Type: Ship (hazmat cat A). MMSI: 413413000.

Date/timePositionNaut miles runAvg speedWind from/ knotsBaromVisibWave heightAir tempDewpointWater temp
2015-Jul-01 03:31N 23°26' E 116°29'8 8.8
2015-Jul-01 02:33N 23°21' E 116°36'9 9.0
2015-Jul-01 01:34N 23°19' E 116°45'9 8.9
2015-Jul-01 00:33N 23°11' E 116°48'11 0.3
2015-Jun-29 04:31N 23°03' E 116°39'1110.8
2015-Jun-29 03:30N 23°10' E 116°47'8 8.5
2015-Jun-29 02:34N 23°18' E 116°47'10 9.5
2015-Jun-29 01:34N 23°21' E 116°36'9 9.0
2015-Jun-29 00:33N 23°26' E 116°29'1 0.0
2015-Jun-27 08:18N 23°27' E 116°28'5 6.8
2015-Jun-27 07:33N 23°25' E 116°33'7 6.7
2015-Jun-27 06:33N 23°20' E 116°38'7 6.6
2015-Jun-27 05:33N 23°20' E 116°45'7 7.3
2015-Jun-27 04:33N 23°18' E 116°53'4110.2
2015-Jun-27 00:33N 23°37' E 117°32'10 9.7
2015-Jun-26 23:33N 23°43' E 117°41'10 9.8
2015-Jun-26 22:33N 23°48' E 117°49'11 9.8
2015-Jun-26 21:25N 23°56' E 117°59'9 9.4
2015-Jun-26 20:28N 24°01' E 118°07'9 9.2
2015-Jun-26 19:31N 24°06' E 118°14'49 9.1
2015-Jun-26 14:08N 24°39' E 118°54'7 9.0
2015-Jun-26 13:25N 24°43' E 118°60'341 8.8
2015-Jun-24 22:28N 29°33' E 122°22'9 9.6
2015-Jun-24 21:33N 29°41' E 122°25'20 9.6
2015-Jun-24 19:26N 29°60' E 122°34'15 7.9
2015-Jun-24 17:30N 30°07' E 122°18'3 0.1
2015-Jun-23 22:33N 30°08' E 122°15'0 0.1
2015-Jun-23 19:32N 30°08' E 122°15'0 0.0
2015-Jun-23 19:02N 30°08' E 122°15'355 7.8
2015-Jun-21 21:29N 24°52' E 119°12'1010.3
2015-Jun-21 20:33N 24°46' E 119°04'3310.4
2015-Jun-21 17:22N 24°25' E 118°37'2111.2
2015-Jun-21 15:29N 24°11' E 118°20'9410.2
2015-Jun-21 06:12N 23°18' E 116°54'4 6.2
2015-Jun-21 05:33N 23°16' E 116°50'0 0.1
2015-Jun-21 04:31N 23°16' E 116°50'  

Dump ship's entire track history